Time;durP1;ratioP1;P1;durP2;ratioP2;P2;SDS_P1;SDS_P2;PMS_P1;PMS_P2;Temp;Humidity;BMP_temperature;BMP_pressure;BME280_temperature;BME280_humidity;BME280_pressure;Samples;Min_cycle;Max_cycle;Signal;HPM_P1;HPM_P2
2023/05/27 00:02:08;;;;;;;;;;;17.60;57.50;;;;;;5063099;28;19919;-81
2023/05/27 00:04:33;;;;;;;;;;;17.60;57.60;;;;;;5062796;28;19923;-81
2023/05/27 00:06:59;;;;;;;;;;;17.60;57.90;;;;;;5059058;28;19917;-81
2023/05/27 00:09:25;;;;;;;;;;;17.60;57.60;;;;;;5039120;28;20223;-81
2023/05/27 00:11:50;;;;;;;;;;;17.60;57.60;;;;;;5046016;28;20263;-81
2023/05/27 00:14:17;;;;;;;;;;;17.60;57.60;;;;;;5059050;28;19912;-81
2023/05/27 00:16:43;;;;;;;;;;;17.60;57.60;;;;;;5041623;28;19962;-81
2023/05/27 00:19:08;;;;;;;;;;;17.60;57.60;;;;;;5041879;28;19909;-81
2023/05/27 00:21:34;;;;;;;;;;;17.60;57.60;;;;;;5041718;28;19970;-81
2023/05/27 00:24:00;;;;;;;;;;;17.50;57.60;;;;;;5042218;28;19909;-81
2023/05/27 00:26:27;;;;;;;;;;;17.50;57.60;;;;;;5041640;28;20397;-81
2023/05/27 00:28:52;;;;;;;;;;;17.50;57.60;;;;;;5021777;28;19940;-81
2023/05/27 00:31:18;;;;;;;;;;;17.50;57.70;;;;;;5021979;28;20215;-81
2023/05/27 00:33:43;;;;;;;;;;;17.50;57.70;;;;;;5022399;28;19909;-81
2023/05/27 00:36:13;;;;;;;;;;;17.40;57.70;;;;;;5022142;28;19921;-81
2023/05/27 00:38:38;;;;;;;;;;;17.40;57.70;;;;;;5022407;28;19944;-81
2023/05/27 00:41:04;;;;;;;;;;;17.40;57.70;;;;;;5034992;28;20035;-81
2023/05/27 00:43:32;;;;;;;;;;;17.40;57.70;;;;;;5021944;28;20210;-81
2023/05/27 00:46:00;;;;;;;;;;;17.40;57.70;;;;;;5038580;28;19909;-81
2023/05/27 00:48:26;;;;;;;;;;;17.40;57.70;;;;;;5022061;28;20008;-81
2023/05/27 00:50:51;;;;;;;;;;;17.40;57.70;;;;;;5039109;28;19957;-81
2023/05/27 00:53:17;;;;;;;;;;;17.30;57.70;;;;;;5021327;28;19960;-81
2023/05/27 00:55:43;;;;;;;;;;;17.30;57.70;;;;;;5021513;28;19913;-81
2023/05/27 00:58:09;;;;;;;;;;;17.30;57.70;;;;;;5029971;28;20198;-81
2023/05/27 01:00:37;;;;;;;;;;;17.30;57.70;;;;;;5041749;28;20318;-81
2023/05/27 01:03:03;;;;;;;;;;;17.30;57.70;;;;;;5042075;28;19909;-81
2023/05/27 01:05:35;;;;;;;;;;;17.30;57.80;;;;;;5057648;28;19909;-81
2023/05/27 01:08:01;;;;;;;;;;;17.30;57.80;;;;;;5041016;28;19951;-80
2023/05/27 01:10:47;;;;;;;;;;;17.30;57.80;;;;;;5057250;28;19916;-80
2023/05/27 01:13:17;;;;;;;;;;;17.30;57.80;;;;;;5060676;28;19908;-80
2023/05/27 01:15:46;;;;;;;;;;;17.30;57.80;;;;;;5060698;28;19967;-80
2023/05/27 01:18:16;;;;;;;;;;;17.20;57.80;;;;;;5061292;28;19947;-80
2023/05/27 01:20:43;;;;;;;;;;;17.20;57.80;;;;;;5060789;28;20010;-80
2023/05/27 01:23:09;;;;;;;;;;;17.20;57.80;;;;;;5061819;28;19935;-80
2023/05/27 01:25:35;;;;;;;;;;;17.20;57.90;;;;;;5078297;28;19939;-80
2023/05/27 01:28:06;;;;;;;;;;;17.10;57.80;;;;;;5077971;28;19913;-80
2023/05/27 01:30:31;;;;;;;;;;;17.10;57.80;;;;;;5061502;28;19916;-80
2023/05/27 01:33:03;;;;;;;;;;;17.10;57.80;;;;;;5078617;28;19913;-80
2023/05/27 01:35:39;;;;;;;;;;;17.10;57.80;;;;;;5061213;28;19916;-80
2023/05/27 01:38:25;;;;;;;;;;;17.10;57.80;;;;;;5078150;28;19919;-81
2023/05/27 01:40:51;;;;;;;;;;;17.10;57.90;;;;;;5077911;28;19916;-81
2023/05/27 01:43:17;;;;;;;;;;;17.10;57.90;;;;;;5061126;28;19924;-81
2023/05/27 01:45:43;;;;;;;;;;;17.10;57.90;;;;;;5060863;28;19909;-81
2023/05/27 01:48:09;;;;;;;;;;;17.00;57.90;;;;;;5078003;28;19952;-81
2023/05/27 01:50:35;;;;;;;;;;;17.00;57.90;;;;;;5061720;28;19909;-79
2023/05/27 01:53:01;;;;;;;;;;;17.00;57.90;;;;;;5060991;28;19908;-80
2023/05/27 01:55:27;;;;;;;;;;;17.00;57.90;;;;;;5059710;28;19919;-81
2023/05/27 01:57:54;;;;;;;;;;;17.00;57.90;;;;;;5058663;28;19925;-81
2023/05/27 02:00:19;;;;;;;;;;;16.90;57.90;;;;;;5059982;28;19979;-80
2023/05/27 02:02:45;;;;;;;;;;;17.00;57.90;;;;;;5060143;28;19986;-80
2023/05/27 02:05:10;;;;;;;;;;;16.90;57.90;;;;;;5059628;28;19915;-80
2023/05/27 02:07:36;;;;;;;;;;;16.90;57.90;;;;;;5059344;28;19972;-81
2023/05/27 02:10:01;;;;;;;;;;;16.90;57.90;;;;;;5060852;28;19920;-81
2023/05/27 02:12:27;;;;;;;;;;;16.90;57.90;;;;;;5077819;28;20013;-80
2023/05/27 02:14:53;;;;;;;;;;;16.90;58.00;;;;;;5060745;28;19913;-80
2023/05/27 02:17:18;;;;;;;;;;;16.80;57.90;;;;;;5060258;28;19909;-80
2023/05/27 02:19:44;;;;;;;;;;;16.80;57.90;;;;;;5078004;28;19924;-80
2023/05/27 02:22:10;;;;;;;;;;;16.80;57.90;;;;;;5060598;28;19978;-81
2023/05/27 02:24:36;;;;;;;;;;;16.80;57.90;;;;;;5060542;28;19908;-81
2023/05/27 02:27:02;;;;;;;;;;;16.80;57.90;;;;;;5060589;28;20195;-81
2023/05/27 02:29:27;;;;;;;;;;;16.70;57.90;;;;;;5059785;28;19918;-81
2023/05/27 02:31:53;;;;;;;;;;;16.80;57.90;;;;;;5061107;28;20147;-79
2023/05/27 02:34:37;;;;;;;;;;;16.70;57.90;;;;;;5062108;28;20336;-81
2023/05/27 02:37:04;;;;;;;;;;;16.70;58.30;;;;;;5068748;28;19923;-80
2023/05/27 02:39:30;;;;;;;;;;;16.70;57.90;;;;;;5062518;28;19918;-80
2023/05/27 02:41:55;;;;;;;;;;;16.70;58.00;;;;;;5065478;28;19939;-81
2023/05/27 02:44:21;;;;;;;;;;;16.70;58.00;;;;;;5064622;28;19920;-80
2023/05/27 02:46:46;;;;;;;;;;;16.70;58.00;;;;;;5064678;28;20559;-80
2023/05/27 02:49:12;;;;;;;;;;;16.60;57.90;;;;;;5063702;28;19912;-80
2023/05/27 02:51:37;;;;;;;;;;;16.60;57.90;;;;;;5064341;28;20005;-80
2023/05/27 02:54:09;;;;;;;;;;;16.60;57.90;;;;;;5063996;28;19913;-80
2023/05/27 02:56:35;;;;;;;;;;;16.60;57.90;;;;;;5063558;28;19909;-80
2023/05/27 02:59:01;;;;;;;;;;;16.60;58.00;;;;;;5063951;28;19919;-80
2023/05/27 03:01:26;;;;;;;;;;;16.50;57.90;;;;;;5064761;28;19955;-80
2023/05/27 03:03:53;;;;;;;;;;;16.50;58.00;;;;;;5063850;28;19912;-80
2023/05/27 03:06:19;;;;;;;;;;;16.50;58.00;;;;;;5081886;28;19934;-80
2023/05/27 03:08:45;;;;;;;;;;;16.50;58.00;;;;;;5064343;28;19913;-80
2023/05/27 03:11:11;;;;;;;;;;;16.50;58.00;;;;;;5064126;28;19969;-80
2023/05/27 03:13:36;;;;;;;;;;;16.50;58.00;;;;;;5063874;28;19916;-81
2023/05/27 03:16:02;;;;;;;;;;;16.50;58.00;;;;;;5060425;28;19970;-81
2023/05/27 03:18:28;;;;;;;;;;;16.40;58.00;;;;;;5044153;28;19920;-80
2023/05/27 03:20:53;;;;;;;;;;;16.50;58.00;;;;;;5044939;28;19913;-80
2023/05/27 03:23:19;;;;;;;;;;;16.40;58.00;;;;;;5063807;28;19913;-80
2023/05/27 03:25:48;;;;;;;;;;;16.40;57.90;;;;;;5081315;28;19909;-81
2023/05/27 03:28:14;;;;;;;;;;;16.40;58.00;;;;;;5081208;28;19916;-81
2023/05/27 03:30:40;;;;;;;;;;;16.40;58.00;;;;;;5063111;28;19934;-81
2023/05/27 03:33:06;;;;;;;;;;;16.40;58.00;;;;;;5063484;28;20187;-81
2023/05/27 03:35:31;;;;;;;;;;;16.40;57.90;;;;;;5061081;28;19916;-80
2023/05/27 03:37:57;;;;;;;;;;;16.40;58.00;;;;;;5077449;28;19912;-80
2023/05/27 03:40:22;;;;;;;;;;;16.40;58.00;;;;;;5058926;28;19915;-80
2023/05/27 03:42:48;;;;;;;;;;;16.40;58.00;;;;;;5058651;28;19912;-80
2023/05/27 03:45:14;;;;;;;;;;;16.30;57.90;;;;;;5058519;28;19908;-80
2023/05/27 03:47:40;;;;;;;;;;;16.30;57.90;;;;;;5058369;28;19909;-80
2023/05/27 03:50:05;;;;;;;;;;;16.40;58.00;;;;;;5057638;28;19919;-80
2023/05/27 03:52:31;;;;;;;;;;;16.30;57.90;;;;;;5056852;28;19944;-80
2023/05/27 03:54:57;;;;;;;;;;;16.30;57.90;;;;;;5058174;28;19916;-80
2023/05/27 03:57:22;;;;;;;;;;;16.30;57.90;;;;;;5057904;28;19913;-80
2023/05/27 03:59:48;;;;;;;;;;;16.30;57.90;;;;;;5058859;28;19916;-81
2023/05/27 04:02:13;;;;;;;;;;;16.30;57.90;;;;;;5057896;28;19909;-81
2023/05/27 04:04:39;;;;;;;;;;;16.30;57.90;;;;;;5058736;28;19908;-81
2023/05/27 04:07:04;;;;;;;;;;;16.30;57.90;;;;;;5058643;28;20002;-81
2023/05/27 04:09:30;;;;;;;;;;;16.30;57.90;;;;;;5076595;28;19977;-81
2023/05/27 04:11:56;;;;;;;;;;;16.30;57.90;;;;;;5076080;28;19960;-81
2023/05/27 04:14:22;;;;;;;;;;;16.30;57.90;;;;;;5058221;28;19958;-81
2023/05/27 04:16:48;;;;;;;;;;;16.30;57.90;;;;;;5057456;28;19970;-81
2023/05/27 04:19:13;;;;;;;;;;;16.30;57.90;;;;;;5057371;28;19976;-80
2023/05/27 04:21:39;;;;;;;;;;;16.30;57.90;;;;;;5057332;28;19909;-80
2023/05/27 04:24:05;;;;;;;;;;;16.30;57.90;;;;;;5057050;28;20110;-81
2023/05/27 04:26:31;;;;;;;;;;;16.30;57.90;;;;;;5056077;28;19956;-81
2023/05/27 04:28:59;;;;;;;;;;;16.30;57.90;;;;;;5057455;28;19909;-81
2023/05/27 04:31:28;;;;;;;;;;;16.30;57.90;;;;;;5057743;28;19909;-81
2023/05/27 04:33:55;;;;;;;;;;;16.30;57.80;;;;;;5058647;28;19954;-81
2023/05/27 04:36:25;;;;;;;;;;;16.30;57.80;;;;;;5057437;28;19908;-80
2023/05/27 04:38:51;;;;;;;;;;;16.40;57.80;;;;;;5057840;28;19914;-81
2023/05/27 04:41:16;;;;;;;;;;;16.40;57.80;;;;;;5057353;28;19908;-81
2023/05/27 04:43:42;;;;;;;;;;;16.40;57.80;;;;;;5075184;28;19958;-81
2023/05/27 04:46:07;;;;;;;;;;;16.40;57.70;;;;;;5055385;28;19998;-81
2023/05/27 04:48:35;;;;;;;;;;;16.40;57.70;;;;;;5055783;28;19908;-81
2023/05/27 04:51:00;;;;;;;;;;;16.50;57.70;;;;;;5054905;28;20258;-81
2023/05/27 04:53:26;;;;;;;;;;;16.50;57.70;;;;;;5054119;28;19998;-81
2023/05/27 04:55:51;;;;;;;;;;;16.50;57.70;;;;;;5071815;28;20209;-81
2023/05/27 04:58:17;;;;;;;;;;;16.50;57.60;;;;;;5053915;28;19916;-80
2023/05/27 05:00:57;;;;;;;;;;;16.60;57.60;;;;;;5053323;28;19909;-80
2023/05/27 05:03:36;;;;;;;;;;;16.60;57.60;;;;;;5070981;28;19916;-80
2023/05/27 05:06:02;;;;;;;;;;;16.60;57.50;;;;;;5055001;28;19916;-80
2023/05/27 05:08:28;;;;;;;;;;;16.60;57.40;;;;;;5073930;28;19914;-80
2023/05/27 05:10:54;;;;;;;;;;;16.70;57.70;;;;;;5054323;28;19916;-80
2023/05/27 05:13:20;;;;;;;;;;;16.70;57.30;;;;;;5054273;28;20166;-80
2023/05/27 05:15:45;;;;;;;;;;;16.80;57.30;;;;;;5055746;28;19913;-81
2023/05/27 05:18:11;;;;;;;;;;;16.80;57.20;;;;;;5056456;28;19919;-80
2023/05/27 05:20:37;;;;;;;;;;;16.80;57.10;;;;;;5055688;28;19959;-81
2023/05/27 05:23:02;;;;;;;;;;;16.90;57.10;;;;;;5056068;28;19913;-81
2023/05/27 05:25:30;;;;;;;;;;;16.90;57.00;;;;;;5074280;28;20263;-81
2023/05/27 05:27:56;;;;;;;;;;;17.00;56.90;;;;;;5055941;28;19908;-81
2023/05/27 05:30:21;;;;;;;;;;;17.00;56.90;;;;;;5055003;28;20301;-81
2023/05/27 05:32:47;;;;;;;;;;;17.00;56.70;;;;;;5055128;28;19908;-81
2023/05/27 05:35:12;;;;;;;;;;;17.10;56.60;;;;;;5056731;28;19920;-80
2023/05/27 05:37:38;;;;;;;;;;;17.20;56.60;;;;;;5057782;28;19966;-80
2023/05/27 05:40:04;;;;;;;;;;;17.20;56.50;;;;;;5057177;28;19916;-80
2023/05/27 05:42:29;;;;;;;;;;;17.30;56.40;;;;;;5072627;28;20049;-80
2023/05/27 05:44:55;;;;;;;;;;;17.40;56.20;;;;;;5056029;28;19909;-80
2023/05/27 05:47:21;;;;;;;;;;;17.50;56.10;;;;;;5055738;28;19973;-80
2023/05/27 05:49:46;;;;;;;;;;;17.60;55.90;;;;;;5053196;28;19938;-80
2023/05/27 05:52:12;;;;;;;;;;;17.60;55.70;;;;;;5053323;28;20348;-80
2023/05/27 05:54:37;;;;;;;;;;;17.80;55.60;;;;;;5052285;28;19923;-80
2023/05/27 05:57:03;;;;;;;;;;;17.90;55.50;;;;;;5069984;28;19935;-80
2023/05/27 05:59:29;;;;;;;;;;;18.00;55.40;;;;;;5071462;28;20253;-80
2023/05/27 06:01:54;;;;;;;;;;;18.10;55.30;;;;;;5053917;28;20186;-80
2023/05/27 06:04:20;;;;;;;;;;;18.10;55.10;;;;;;5054813;28;19977;-81
2023/05/27 06:06:46;;;;;;;;;;;18.20;55.00;;;;;;5052203;28;19959;-81
2023/05/27 06:09:11;;;;;;;;;;;18.30;54.90;;;;;;5053791;28;19927;-81
2023/05/27 06:11:37;;;;;;;;;;;18.40;54.80;;;;;;5053822;28;20339;-81
2023/05/27 06:14:02;;;;;;;;;;;18.50;54.70;;;;;;5072048;28;19912;-81
2023/05/27 06:16:28;;;;;;;;;;;18.50;54.60;;;;;;5057333;28;19916;-81
2023/05/27 06:18:54;;;;;;;;;;;18.70;54.50;;;;;;5061140;28;19907;-81
2023/05/27 06:21:20;;;;;;;;;;;18.80;54.40;;;;;;5062482;28;19918;-80
2023/05/27 06:23:45;;;;;;;;;;;18.80;54.20;;;;;;5055761;28;19908;-80
2023/05/27 06:26:11;;;;;;;;;;;18.90;54.10;;;;;;5057558;28;20994;-80
2023/05/27 06:28:36;;;;;;;;;;;19.00;54.10;;;;;;5058994;28;19904;-80
2023/05/27 06:31:02;;;;;;;;;;;19.10;53.90;;;;;;5057430;28;19973;-80
2023/05/27 06:33:27;;;;;;;;;;;19.20;53.80;;;;;;5057924;28;19908;-80
2023/05/27 06:35:53;;;;;;;;;;;19.30;53.80;;;;;;5057400;28;19959;-80
2023/05/27 06:38:19;;;;;;;;;;;19.40;53.60;;;;;;5057846;28;20275;-80
2023/05/27 06:40:44;;;;;;;;;;;19.50;53.60;;;;;;5057514;28;19908;-80
2023/05/27 06:43:10;;;;;;;;;;;19.60;53.50;;;;;;5057542;28;19925;-80
2023/05/27 06:45:35;;;;;;;;;;;19.80;53.20;;;;;;5073399;28;20003;-80
2023/05/27 06:48:01;;;;;;;;;;;19.90;53.30;;;;;;5059112;28;19908;-80
2023/05/27 06:50:27;;;;;;;;;;;20.10;53.10;;;;;;5059828;28;19952;-80
2023/05/27 06:52:52;;;;;;;;;;;20.30;52.80;;;;;;5075557;28;19909;-81
2023/05/27 06:55:18;;;;;;;;;;;20.50;52.50;;;;;;5056714;28;19912;-81
2023/05/27 06:57:43;;;;;;;;;;;20.70;52.30;;;;;;5055187;28;19920;-81
2023/05/27 07:00:09;;;;;;;;;;;21.00;52.00;;;;;;5053677;28;19943;-81
2023/05/27 07:02:35;;;;;;;;;;;21.20;51.60;;;;;;5054749;28;20356;-81
2023/05/27 07:05:01;;;;;;;;;;;21.50;51.30;;;;;;5053113;28;19912;-81
2023/05/27 07:07:26;;;;;;;;;;;21.80;50.90;;;;;;5054638;28;19934;-81
2023/05/27 07:09:52;;;;;;;;;;;22.10;50.50;;;;;;5072052;28;20444;-81
2023/05/27 07:12:18;;;;;;;;;;;22.50;50.10;;;;;;5053321;28;19908;-81
2023/05/27 07:14:43;;;;;;;;;;;22.80;49.70;;;;;;5054102;28;20007;-81
2023/05/27 07:17:09;;;;;;;;;;;23.10;49.30;;;;;;5054995;28;20082;-81
2023/05/27 07:19:34;;;;;;;;;;;23.30;49.30;;;;;;5056481;28;19917;-81
2023/05/27 07:22:00;;;;;;;;;;;23.60;48.60;;;;;;5057258;28;20202;-81
2023/05/27 07:24:26;;;;;;;;;;;23.80;48.40;;;;;;5056975;28;19933;-81
2023/05/27 07:26:51;;;;;;;;;;;24.00;48.10;;;;;;5054006;28;19920;-81
2023/05/27 07:29:17;;;;;;;;;;;24.20;47.90;;;;;;5072001;28;20255;-81
2023/05/27 07:31:42;;;;;;;;;;;24.50;48.10;;;;;;5054309;28;20062;-81
2023/05/27 07:34:08;;;;;;;;;;;24.80;47.30;;;;;;5053533;28;19921;-81
2023/05/27 07:36:34;;;;;;;;;;;25.00;47.10;;;;;;5054741;28;19912;-81
2023/05/27 07:39:00;;;;;;;;;;;25.20;46.90;;;;;;5053597;28;19948;-81
2023/05/27 07:41:26;;;;;;;;;;;25.40;46.70;;;;;;5053505;28;19986;-81
2023/05/27 07:43:51;;;;;;;;;;;25.60;46.40;;;;;;5052957;28;20305;-81
2023/05/27 07:46:17;;;;;;;;;;;25.80;46.40;;;;;;5055837;28;19999;-81
2023/05/27 07:48:42;;;;;;;;;;;25.90;46.30;;;;;;5054518;28;20294;-81
2023/05/27 07:51:08;;;;;;;;;;;26.00;46.10;;;;;;5055044;28;20019;-79
2023/05/27 07:53:34;;;;;;;;;;;26.20;46.00;;;;;;5055815;28;19919;-79
2023/05/27 07:55:59;;;;;;;;;;;26.30;45.80;;;;;;5057979;28;19912;-79
2023/05/27 07:58:25;;;;;;;;;;;26.50;45.70;;;;;;5072545;28;19908;-79
2023/05/27 08:00:50;;;;;;;;;;;26.70;45.60;;;;;;5053193;28;20103;-79
2023/05/27 08:03:16;;;;;;;;;;;26.80;45.40;;;;;;5070788;28;19985;-79
2023/05/27 08:05:42;;;;;;;;;;;27.00;45.30;;;;;;5054409;28;19916;-79
2023/05/27 08:08:07;;;;;;;;;;;27.20;45.20;;;;;;5053189;28;19916;-79
2023/05/27 08:10:33;;;;;;;;;;;27.30;45.00;;;;;;5053984;28;19927;-79
2023/05/27 08:12:58;;;;;;;;;;;27.40;44.90;;;;;;5056156;28;20213;-79
2023/05/27 08:15:24;;;;;;;;;;;27.60;44.80;;;;;;5056562;28;19912;-79
2023/05/27 08:17:49;;;;;;;;;;;27.70;44.70;;;;;;5055725;28;20173;-79
2023/05/27 08:20:15;;;;;;;;;;;27.90;44.60;;;;;;5053304;28;19917;-79
2023/05/27 08:22:41;;;;;;;;;;;28.00;44.40;;;;;;5053891;28;19919;-79
2023/05/27 08:25:07;;;;;;;;;;;28.20;44.40;;;;;;5038552;28;20032;-79
2023/05/27 08:27:51;;;;;;;;;;;28.30;44.20;;;;;;5052625;28;19935;-78
2023/05/27 08:30:17;;;;;;;;;;;28.50;44.20;;;;;;5071572;28;20279;-79
2023/05/27 08:32:42;;;;;;;;;;;28.60;44.00;;;;;;5072431;28;19945;-79
2023/05/27 08:35:10;;;;;;;;;;;28.70;43.90;;;;;;5053624;28;19913;-78
2023/05/27 08:37:35;;;;;;;;;;;28.80;43.80;;;;;;5052576;28;19912;-78
2023/05/27 08:40:01;;;;;;;;;;;29.00;43.80;;;;;;5053308;28;19994;-79
2023/05/27 08:42:26;;;;;;;;;;;29.10;43.60;;;;;;5053297;28;19995;-79
2023/05/27 08:44:52;;;;;;;;;;;29.20;43.50;;;;;;5052419;28;20143;-79
2023/05/27 08:47:18;;;;;;;;;;;29.30;43.40;;;;;;5049835;28;20329;-79
2023/05/27 08:49:44;;;;;;;;;;;29.30;43.50;;;;;;5049984;28;19962;-79
2023/05/27 08:52:13;;;;;;;;;;;29.40;43.40;;;;;;5050119;28;19909;-79
2023/05/27 08:54:39;;;;;;;;;;;29.50;43.40;;;;;;5050657;28;19923;-78
2023/05/27 08:57:07;;;;;;;;;;;29.50;43.20;;;;;;5050827;28;19924;-79
2023/05/27 08:59:33;;;;;;;;;;;29.60;43.20;;;;;;5068030;28;20243;-79
2023/05/27 09:01:59;;;;;;;;;;;29.70;43.20;;;;;;5048298;28;19958;-79
2023/05/27 09:04:25;;;;;;;;;;;29.80;43.20;;;;;;5050158;28;19904;-79
2023/05/27 09:06:51;;;;;;;;;;;29.80;43.20;;;;;;5048916;28;19912;-79
2023/05/27 09:09:18;;;;;;;;;;;29.80;43.10;;;;;;5050141;28;19920;-79
2023/05/27 09:11:44;;;;;;;;;;;29.80;43.10;;;;;;5049681;28;19939;-79
2023/05/27 09:14:30;;;;;;;;;;;29.80;43.10;;;;;;5050431;28;19916;-79
2023/05/27 09:16:55;;;;;;;;;;;29.70;43.20;;;;;;5065972;28;19908;-79
2023/05/27 09:19:21;;;;;;;;;;;29.80;43.30;;;;;;5049065;28;19923;-79
2023/05/27 09:21:47;;;;;;;;;;;29.70;43.20;;;;;;5050204;28;19909;-79
2023/05/27 09:24:12;;;;;;;;;;;29.60;43.20;;;;;;5067539;28;19908;-79
2023/05/27 09:26:38;;;;;;;;;;;29.50;43.40;;;;;;5050889;28;19908;-79
2023/05/27 09:29:07;;;;;;;;;;;29.40;43.50;;;;;;5050661;28;19992;-78
2023/05/27 09:31:40;;;;;;;;;;;29.00;43.60;;;;;;5068206;28;19913;-79
2023/05/27 09:34:09;;;;;;;;;;;28.60;43.80;;;;;;5051074;28;19963;-79
2023/05/27 09:36:41;;;;;;;;;;;28.20;44.00;;;;;;5050987;28;19908;-79
2023/05/27 09:39:07;;;;;;;;;;;27.80;44.30;;;;;;5052147;28;20270;-79
2023/05/27 09:41:33;;;;;;;;;;;27.40;44.60;;;;;;5068691;28;19908;-79
2023/05/27 09:44:00;;;;;;;;;;;27.20;44.90;;;;;;5068605;28;19909;-79
2023/05/27 09:46:26;;;;;;;;;;;26.90;45.10;;;;;;5052196;28;19909;-79
2023/05/27 09:48:51;;;;;;;;;;;26.70;45.20;;;;;;5054261;28;19923;-79
2023/05/27 09:51:17;;;;;;;;;;;26.60;45.40;;;;;;5076272;28;19928;-79
2023/05/27 09:53:43;;;;;;;;;;;26.40;45.60;;;;;;5050200;28;19989;-78
2023/05/27 09:56:08;;;;;;;;;;;26.30;45.70;;;;;;5050171;28;20005;-79
2023/05/27 09:58:35;;;;;;;;;;;26.20;45.90;;;;;;5050459;28;19909;-79
2023/05/27 10:01:01;;;;;;;;;;;26.10;46.10;;;;;;5049276;28;19909;-79
2023/05/27 10:03:28;;;;;;;;;;;26.00;46.10;;;;;;5050450;28;20336;-79
2023/05/27 10:05:55;;;;;;;;;;;26.00;46.30;;;;;;5047123;28;19916;-79
2023/05/27 10:08:21;;;;;;;;;;;25.90;46.70;;;;;;5049009;28;19908;-79
2023/05/27 10:10:46;;;;;;;;;;;25.80;46.40;;;;;;5065077;28;19985;-79
2023/05/27 10:13:15;;;;;;;;;;;25.70;46.40;;;;;;5048924;28;19909;-79
2023/05/27 10:15:45;;;;;;;;;;;25.70;46.60;;;;;;5047979;28;19920;-79
2023/05/27 10:18:21;;;;;;;;;;;25.60;46.60;;;;;;5066141;28;19979;-79
2023/05/27 10:20:49;;;;;;;;;;;25.60;46.70;;;;;;5048183;28;19951;-79
2023/05/27 10:23:16;;;;;;;;;;;25.50;46.80;;;;;;5068819;28;20347;-79
2023/05/27 10:25:49;;;;;;;;;;;25.40;46.90;;;;;;5051083;28;19942;-79
2023/05/27 10:28:32;;;;;;;;;;;25.30;47.00;;;;;;5050880;28;19909;-79
2023/05/27 10:31:06;;;;;;;;;;;25.20;47.10;;;;;;5048648;28;19905;-79
2023/05/27 10:33:34;;;;;;;;;;;25.10;47.30;;;;;;5050194;28;19912;-79
2023/05/27 10:36:10;;;;;;;;;;;25.10;47.40;;;;;;5049481;28;20326;-79
2023/05/27 10:38:36;;;;;;;;;;;25.00;47.50;;;;;;5050644;28;19951;-79
2023/05/27 10:41:03;;;;;;;;;;;24.90;47.60;;;;;;5050326;28;19965;-79
2023/05/27 10:43:29;;;;;;;;;;;24.90;48.10;;;;;;5067199;28;19919;-79
2023/05/27 10:46:13;;;;;;;;;;;24.80;47.80;;;;;;5046689;28;19912;-78
2023/05/27 10:48:39;;;;;;;;;;;24.70;47.90;;;;;;5047580;28;20203;-79
2023/05/27 10:51:06;;;;;;;;;;;24.70;48.10;;;;;;5048371;28;19945;-78
2023/05/27 10:53:34;;;;;;;;;;;24.60;48.10;;;;;;5048593;28;19912;-79
2023/05/27 10:56:00;;;;;;;;;;;24.60;48.20;;;;;;5049537;28;20286;-80
2023/05/27 10:58:27;;;;;;;;;;;24.50;48.30;;;;;;5065144;28;19909;-80
2023/05/27 11:00:53;;;;;;;;;;;24.50;48.50;;;;;;5070490;28;19977;-80
2023/05/27 11:03:26;;;;;;;;;;;24.40;48.50;;;;;;5072049;28;20068;-79
2023/05/27 11:06:02;;;;;;;;;;;24.40;48.60;;;;;;5054893;28;20049;-80
2023/05/27 11:08:29;;;;;;;;;;;24.40;48.70;;;;;;5053053;28;20098;-80
2023/05/27 11:10:59;;;;;;;;;;;24.30;48.80;;;;;;5051960;28;19916;-80
2023/05/27 11:13:35;;;;;;;;;;;24.30;48.90;;;;;;5053126;28;19908;-80
2023/05/27 11:16:01;;;;;;;;;;;24.20;49.00;;;;;;5054689;28;20121;-80
2023/05/27 11:18:40;;;;;;;;;;;24.20;49.10;;;;;;5052956;28;20237;-80
2023/05/27 11:21:06;;;;;;;;;;;24.20;49.20;;;;;;5054169;28;20192;-80
2023/05/27 11:23:40;;;;;;;;;;;24.10;49.20;;;;;;5055297;28;19997;-80
2023/05/27 11:26:15;;;;;;;;;;;24.10;49.30;;;;;;5054900;28;20437;-80
2023/05/27 11:28:47;;;;;;;;;;;24.10;49.40;;;;;;5054259;28;20195;-80
2023/05/27 11:31:14;;;;;;;;;;;24.10;49.50;;;;;;5053472;28;19919;-80
2023/05/27 11:33:43;;;;;;;;;;;24.10;49.60;;;;;;5054970;28;20024;-80
2023/05/27 11:36:13;;;;;;;;;;;24.00;49.60;;;;;;5054229;28;20008;-79
2023/05/27 11:38:46;;;;;;;;;;;24.00;49.70;;;;;;5053785;28;20003;-80
2023/05/27 11:41:11;;;;;;;;;;;24.00;49.80;;;;;;5070703;28;20293;-79
2023/05/27 11:43:46;;;;;;;;;;;23.90;49.80;;;;;;5054508;28;20210;-79
2023/05/27 11:46:11;;;;;;;;;;;23.90;50.00;;;;;;5054550;28;19908;-80
2023/05/27 11:48:37;;;;;;;;;;;23.90;50.00;;;;;;5052884;28;20073;-80
2023/05/27 11:51:02;;;;;;;;;;;23.90;50.10;;;;;;5052695;28;19908;-79
2023/05/27 11:53:30;;;;;;;;;;;23.90;50.20;;;;;;5052560;28;20209;-80
2023/05/27 11:55:55;;;;;;;;;;;23.80;50.20;;;;;;5052090;28;20286;-79
2023/05/27 11:58:21;;;;;;;;;;;23.80;50.40;;;;;;5050413;28;19913;-79
2023/05/27 12:00:46;;;;;;;;;;;23.80;50.40;;;;;;5051518;28;20418;-80
2023/05/27 12:03:12;;;;;;;;;;;23.80;50.50;;;;;;5050535;28;20294;-80
2023/05/27 12:05:37;;;;;;;;;;;23.80;50.60;;;;;;5052968;28;20284;-80
2023/05/27 12:08:03;;;;;;;;;;;23.70;50.60;;;;;;5052705;28;20412;-80
2023/05/27 12:10:28;;;;;;;;;;;23.70;50.70;;;;;;5052506;28;19917;-80
2023/05/27 12:13:02;;;;;;;;;;;23.70;50.80;;;;;;5068501;28;19918;-80
2023/05/27 12:15:27;;;;;;;;;;;23.70;50.80;;;;;;5052461;28;19920;-79
2023/05/27 12:17:53;;;;;;;;;;;23.70;50.90;;;;;;5070488;28;19909;-80
2023/05/27 12:20:19;;;;;;;;;;;23.70;51.00;;;;;;5053462;28;19909;-79
2023/05/27 12:22:45;;;;;;;;;;;23.60;51.00;;;;;;5050985;28;20066;-80
2023/05/27 12:25:12;;;;;;;;;;;23.60;51.10;;;;;;5052809;28;19919;-80
2023/05/27 12:27:37;;;;;;;;;;;23.60;51.10;;;;;;5052826;28;19908;-80
2023/05/27 12:30:03;;;;;;;;;;;23.60;51.20;;;;;;5053676;28;19909;-79
2023/05/27 12:32:28;;;;;;;;;;;23.60;51.30;;;;;;5053294;28;19973;-80
2023/05/27 12:34:54;;;;;;;;;;;23.60;51.30;;;;;;5072374;28;19912;-79
2023/05/27 12:37:20;;;;;;;;;;;23.60;51.40;;;;;;5051433;28;19951;-79
2023/05/27 12:39:45;;;;;;;;;;;23.60;51.40;;;;;;5071406;28;19916;-80
2023/05/27 12:42:11;;;;;;;;;;;23.50;51.40;;;;;;5053197;28;19908;-79
2023/05/27 12:44:37;;;;;;;;;;;23.50;51.50;;;;;;5053133;28;20093;-80
2023/05/27 12:47:02;;;;;;;;;;;23.50;51.50;;;;;;5051840;28;19929;-79
2023/05/27 12:49:28;;;;;;;;;;;23.50;51.60;;;;;;5051080;28;19909;-80
2023/05/27 12:51:53;;;;;;;;;;;23.50;51.60;;;;;;5051305;28;19908;-80
2023/05/27 12:54:19;;;;;;;;;;;23.50;51.50;;;;;;5054397;28;19959;-80
2023/05/27 12:56:45;;;;;;;;;;;23.40;51.60;;;;;;5057509;28;20058;-80
2023/05/27 12:59:10;;;;;;;;;;;23.50;51.70;;;;;;5054204;28;19908;-79
2023/05/27 13:01:36;;;;;;;;;;;23.40;51.70;;;;;;5052817;28;19919;-80
2023/05/27 13:04:02;;;;;;;;;;;23.40;51.80;;;;;;5053717;28;19912;-79
2023/05/27 13:06:27;;;;;;;;;;;23.40;51.80;;;;;;5050310;28;19916;-80
2023/05/27 13:08:53;;;;;;;;;;;23.40;51.90;;;;;;5050882;28;19927;-80
2023/05/27 13:11:18;;;;;;;;;;;23.40;51.80;;;;;;5051025;28;19974;-81
2023/05/27 13:13:44;;;;;;;;;;;23.40;52.00;;;;;;5070099;28;19908;-80
2023/05/27 13:16:10;;;;;;;;;;;23.40;52.00;;;;;;5067469;28;20154;-79
2023/05/27 13:18:36;;;;;;;;;;;23.40;52.00;;;;;;5052082;28;19908;-79
2023/05/27 13:21:03;;;;;;;;;;;23.30;52.00;;;;;;5053543;28;20002;-80
2023/05/27 13:23:29;;;;;;;;;;;23.30;52.10;;;;;;5051555;28;20132;-80
2023/05/27 13:25:54;;;;;;;;;;;23.30;52.10;;;;;;5051472;28;20076;-80
2023/05/27 13:28:20;;;;;;;;;;;23.30;52.10;;;;;;5054105;28;20069;-80
2023/05/27 13:30:46;;;;;;;;;;;23.30;52.20;;;;;;5051178;28;19920;-80
2023/05/27 13:33:11;;;;;;;;;;;23.30;52.20;;;;;;5050293;28;19919;-80
2023/05/27 13:35:37;;;;;;;;;;;23.30;52.20;;;;;;5052433;28;20255;-80
2023/05/27 13:38:03;;;;;;;;;;;23.30;52.10;;;;;;5050987;28;19909;-80
2023/05/27 13:40:29;;;;;;;;;;;23.30;52.10;;;;;;5050068;28;19908;-80
2023/05/27 13:42:55;;;;;;;;;;;23.30;52.10;;;;;;5052144;28;19935;-80
2023/05/27 13:45:20;;;;;;;;;;;23.30;52.10;;;;;;5052179;28;19908;-80
2023/05/27 13:47:46;;;;;;;;;;;23.30;52.20;;;;;;5053326;28;19908;-80
2023/05/27 13:50:11;;;;;;;;;;;23.30;52.20;;;;;;5052842;28;19928;-80
2023/05/27 13:52:37;;;;;;;;;;;23.30;52.20;;;;;;5071277;28;20228;-80
2023/05/27 13:55:03;;;;;;;;;;;23.30;52.30;;;;;;5053236;28;19916;-80
2023/05/27 13:57:29;;;;;;;;;;;23.20;52.30;;;;;;5052118;28;19940;-80
2023/05/27 13:59:55;;;;;;;;;;;23.20;52.20;;;;;;5050624;28;19998;-80
2023/05/27 14:02:20;;;;;;;;;;;23.20;52.20;;;;;;5052306;28;20309;-80
2023/05/27 14:04:46;;;;;;;;;;;23.20;52.20;;;;;;5071780;28;20305;-79
2023/05/27 14:07:12;;;;;;;;;;;23.20;52.10;;;;;;5069863;28;20002;-79
2023/05/27 14:09:37;;;;;;;;;;;23.20;52.20;;;;;;5069782;28;19923;-80
2023/05/27 14:12:03;;;;;;;;;;;23.20;52.70;;;;;;5049767;28;19908;-80
2023/05/27 14:14:29;;;;;;;;;;;23.20;52.30;;;;;;5068238;28;19962;-79